sensor_id;sensor_type;location;lat;lon;timestamp;P1;durP1;ratioP1;P2;durP2;ratioP2
8885;SDS011;4479;51.162;13.906;2022-07-12T00:02:33;1.77;;;0.90;;
8885;SDS011;4479;51.162;13.906;2022-07-12T00:12:38;1.13;;;0.80;;
8885;SDS011;4479;51.162;13.906;2022-07-12T00:22:42;1.23;;;0.90;;
8885;SDS011;4479;51.162;13.906;2022-07-12T00:32:48;1.17;;;0.80;;
8885;SDS011;4479;51.162;13.906;2022-07-12T00:42:52;0.77;;;0.67;;
8885;SDS011;4479;51.162;13.906;2022-07-12T00:52:57;0.73;;;0.70;;
8885;SDS011;4479;51.162;13.906;2022-07-12T01:03:01;0.90;;;0.73;;
8885;SDS011;4479;51.162;13.906;2022-07-12T01:13:08;0.80;;;0.70;;
8885;SDS011;4479;51.162;13.906;2022-07-12T01:23:13;0.80;;;0.70;;
8885;SDS011;4479;51.162;13.906;2022-07-12T01:33:17;0.90;;;0.80;;
8885;SDS011;4479;51.162;13.906;2022-07-12T01:43:23;1.80;;;0.90;;
8885;SDS011;4479;51.162;13.906;2022-07-12T01:53:26;1.07;;;0.90;;
8885;SDS011;4479;51.162;13.906;2022-07-12T02:03:35;2.40;;;0.93;;
8885;SDS011;4479;51.162;13.906;2022-07-12T02:13:38;1.80;;;0.90;;
8885;SDS011;4479;51.162;13.906;2022-07-12T02:23:43;0.80;;;0.80;;
8885;SDS011;4479;51.162;13.906;2022-07-12T02:33:47;1.07;;;0.90;;
8885;SDS011;4479;51.162;13.906;2022-07-12T02:43:52;1.20;;;1.10;;
8885;SDS011;4479;51.162;13.906;2022-07-12T02:53:56;1.00;;;0.90;;
8885;SDS011;4479;51.162;13.906;2022-07-12T03:04:01;1.10;;;1.00;;
8885;SDS011;4479;51.162;13.906;2022-07-12T03:14:05;1.40;;;1.00;;
8885;SDS011;4479;51.162;13.906;2022-07-12T03:24:10;1.57;;;1.00;;
8885;SDS011;4479;51.162;13.906;2022-07-12T03:34:13;1.10;;;1.00;;
8885;SDS011;4479;51.162;13.906;2022-07-12T03:44:18;1.07;;;1.03;;
8885;SDS011;4479;51.162;13.906;2022-07-12T03:54:22;2.07;;;1.30;;
8885;SDS011;4479;51.162;13.906;2022-07-12T04:04:27;1.40;;;1.30;;
8885;SDS011;4479;51.162;13.906;2022-07-12T04:14:30;2.20;;;1.20;;
8885;SDS011;4479;51.162;13.906;2022-07-12T04:24:36;1.30;;;1.00;;
8885;SDS011;4479;51.162;13.906;2022-07-12T04:34:39;1.80;;;1.50;;
8885;SDS011;4479;51.162;13.906;2022-07-12T04:44:44;1.83;;;1.40;;
8885;SDS011;4479;51.162;13.906;2022-07-12T04:54:48;2.20;;;1.70;;
8885;SDS011;4479;51.162;13.906;2022-07-12T05:04:54;1.80;;;1.50;;
8885;SDS011;4479;51.162;13.906;2022-07-12T05:14:58;1.60;;;1.50;;
8885;SDS011;4479;51.162;13.906;2022-07-12T05:25:03;1.87;;;1.73;;
8885;SDS011;4479;51.162;13.906;2022-07-12T05:35:07;2.00;;;1.90;;
8885;SDS011;4479;51.162;13.906;2022-07-12T05:45:12;1.57;;;1.47;;
8885;SDS011;4479;51.162;13.906;2022-07-12T05:55:16;1.67;;;1.57;;
8885;SDS011;4479;51.162;13.906;2022-07-12T06:05:21;1.83;;;1.60;;
8885;SDS011;4479;51.162;13.906;2022-07-12T06:15:25;1.60;;;1.50;;
8885;SDS011;4479;51.162;13.906;2022-07-12T06:25:30;1.67;;;1.40;;
8885;SDS011;4479;51.162;13.906;2022-07-12T06:35:33;2.30;;;1.70;;
8885;SDS011;4479;51.162;13.906;2022-07-12T06:45:38;2.37;;;1.50;;
8885;SDS011;4479;51.162;13.906;2022-07-12T06:55:42;1.67;;;1.57;;
8885;SDS011;4479;51.162;13.906;2022-07-12T07:05:47;1.77;;;1.50;;
8885;SDS011;4479;51.162;13.906;2022-07-12T07:15:51;1.80;;;1.70;;
8885;SDS011;4479;51.162;13.906;2022-07-12T07:25:56;2.23;;;1.43;;
8885;SDS011;4479;51.162;13.906;2022-07-12T07:36:00;2.30;;;1.30;;
8885;SDS011;4479;51.162;13.906;2022-07-12T07:46:05;0.90;;;0.90;;
8885;SDS011;4479;51.162;13.906;2022-07-12T07:56:10;1.37;;;0.90;;
8885;SDS011;4479;51.162;13.906;2022-07-12T08:06:15;1.20;;;1.10;;
8885;SDS011;4479;51.162;13.906;2022-07-12T08:16:18;0.70;;;0.70;;
8885;SDS011;4479;51.162;13.906;2022-07-12T08:26:24;0.80;;;0.80;;
8885;SDS011;4479;51.162;13.906;2022-07-12T08:36:27;2.27;;;0.63;;
8885;SDS011;4479;51.162;13.906;2022-07-12T08:46:33;0.93;;;0.70;;
8885;SDS011;4479;51.162;13.906;2022-07-12T08:56:37;1.13;;;0.60;;
8885;SDS011;4479;51.162;13.906;2022-07-12T09:06:42;0.87;;;0.63;;
8885;SDS011;4479;51.162;13.906;2022-07-12T09:16:57;0.90;;;0.80;;
8885;SDS011;4479;51.162;13.906;2022-07-12T09:27:04;0.80;;;0.67;;
8885;SDS011;4479;51.162;13.906;2022-07-12T09:37:07;0.70;;;0.57;;
8885;SDS011;4479;51.162;13.906;2022-07-12T09:47:13;1.40;;;0.60;;
8885;SDS011;4479;51.162;13.906;2022-07-12T09:57:19;1.23;;;0.50;;
8885;SDS011;4479;51.162;13.906;2022-07-12T10:07:25;0.63;;;0.40;;
8885;SDS011;4479;51.162;13.906;2022-07-12T10:17:29;0.70;;;0.60;;
8885;SDS011;4479;51.162;13.906;2022-07-12T10:27:34;0.97;;;0.43;;
8885;SDS011;4479;51.162;13.906;2022-07-12T10:37:38;0.57;;;0.57;;
8885;SDS011;4479;51.162;13.906;2022-07-12T10:47:56;0.90;;;0.40;;
8885;SDS011;4479;51.162;13.906;2022-07-12T10:58:00;0.50;;;0.43;;
8885;SDS011;4479;51.162;13.906;2022-07-12T11:08:05;0.50;;;0.50;;
8885;SDS011;4479;51.162;13.906;2022-07-12T11:18:26;0.70;;;0.50;;
8885;SDS011;4479;51.162;13.906;2022-07-12T11:28:32;0.60;;;0.40;;
8885;SDS011;4479;51.162;13.906;2022-07-12T11:38:36;1.47;;;0.50;;
8885;SDS011;4479;51.162;13.906;2022-07-12T11:48:42;0.70;;;0.60;;
8885;SDS011;4479;51.162;13.906;2022-07-12T11:58:54;1.37;;;0.57;;
8885;SDS011;4479;51.162;13.906;2022-07-12T12:09:06;0.60;;;0.60;;
8885;SDS011;4479;51.162;13.906;2022-07-12T12:19:10;0.93;;;0.50;;
8885;SDS011;4479;51.162;13.906;2022-07-12T12:29:18;0.70;;;0.50;;
8885;SDS011;4479;51.162;13.906;2022-07-12T12:39:42;0.50;;;0.50;;
8885;SDS011;4479;51.162;13.906;2022-07-12T12:49:52;0.60;;;0.60;;
8885;SDS011;4479;51.162;13.906;2022-07-12T12:59:57;0.50;;;0.50;;
8885;SDS011;4479;51.162;13.906;2022-07-12T13:10:03;0.63;;;0.60;;
8885;SDS011;4479;51.162;13.906;2022-07-12T13:20:07;0.70;;;0.50;;
8885;SDS011;4479;51.162;13.906;2022-07-12T13:30:15;0.60;;;0.60;;
8885;SDS011;4479;51.162;13.906;2022-07-12T13:40:18;0.53;;;0.40;;
8885;SDS011;4479;51.162;13.906;2022-07-12T13:50:24;0.87;;;0.60;;
8885;SDS011;4479;51.162;13.906;2022-07-12T14:00:28;1.27;;;0.43;;
8885;SDS011;4479;51.162;13.906;2022-07-12T14:10:33;0.77;;;0.63;;
8885;SDS011;4479;51.162;13.906;2022-07-12T14:20:37;0.73;;;0.50;;
8885;SDS011;4479;51.162;13.906;2022-07-12T14:30:43;0.70;;;0.60;;
8885;SDS011;4479;51.162;13.906;2022-07-12T14:40:47;0.60;;;0.50;;
8885;SDS011;4479;51.162;13.906;2022-07-12T14:50:52;0.90;;;0.60;;
8885;SDS011;4479;51.162;13.906;2022-07-12T15:00:56;0.70;;;0.50;;
8885;SDS011;4479;51.162;13.906;2022-07-12T15:11:02;0.67;;;0.50;;
8885;SDS011;4479;51.162;13.906;2022-07-12T15:21:06;0.50;;;0.50;;
8885;SDS011;4479;51.162;13.906;2022-07-12T15:31:11;0.50;;;0.50;;
8885;SDS011;4479;51.162;13.906;2022-07-12T15:41:14;0.93;;;0.60;;
8885;SDS011;4479;51.162;13.906;2022-07-12T15:51:19;1.20;;;0.60;;
8885;SDS011;4479;51.162;13.906;2022-07-12T16:01:43;0.50;;;0.50;;
8885;SDS011;4479;51.162;13.906;2022-07-12T16:11:50;0.50;;;0.50;;
8885;SDS011;4479;51.162;13.906;2022-07-12T16:21:54;1.60;;;0.50;;
8885;SDS011;4479;51.162;13.906;2022-07-12T16:31:59;0.90;;;0.60;;
8885;SDS011;4479;51.162;13.906;2022-07-12T16:42:03;0.80;;;0.50;;
8885;SDS011;4479;51.162;13.906;2022-07-12T16:52:08;0.87;;;0.40;;
8885;SDS011;4479;51.162;13.906;2022-07-12T17:02:11;0.73;;;0.50;;
8885;SDS011;4479;51.162;13.906;2022-07-12T17:12:17;0.50;;;0.50;;
8885;SDS011;4479;51.162;13.906;2022-07-12T17:22:22;0.60;;;0.60;;
8885;SDS011;4479;51.162;13.906;2022-07-12T17:32:28;0.57;;;0.50;;
8885;SDS011;4479;51.162;13.906;2022-07-12T17:42:31;0.77;;;0.60;;
8885;SDS011;4479;51.162;13.906;2022-07-12T17:52:36;0.70;;;0.60;;
8885;SDS011;4479;51.162;13.906;2022-07-12T18:02:40;0.57;;;0.50;;
8885;SDS011;4479;51.162;13.906;2022-07-12T18:12:45;0.50;;;0.50;;
8885;SDS011;4479;51.162;13.906;2022-07-12T18:23:06;0.67;;;0.60;;
8885;SDS011;4479;51.162;13.906;2022-07-12T18:33:12;0.50;;;0.50;;
8885;SDS011;4479;51.162;13.906;2022-07-12T18:43:15;0.73;;;0.50;;
8885;SDS011;4479;51.162;13.906;2022-07-12T18:53:20;1.27;;;0.60;;
8885;SDS011;4479;51.162;13.906;2022-07-12T19:03:24;1.83;;;0.60;;
8885;SDS011;4479;51.162;13.906;2022-07-12T19:13:29;2.23;;;0.63;;
8885;SDS011;4479;51.162;13.906;2022-07-12T19:23:32;1.30;;;0.97;;
8885;SDS011;4479;51.162;13.906;2022-07-12T19:33:38;3.10;;;1.23;;
8885;SDS011;4479;51.162;13.906;2022-07-12T19:43:42;3.10;;;1.60;;
8885;SDS011;4479;51.162;13.906;2022-07-12T19:53:47;2.20;;;1.50;;
8885;SDS011;4479;51.162;13.906;2022-07-12T20:03:50;1.83;;;1.10;;
8885;SDS011;4479;51.162;13.906;2022-07-12T20:13:55;1.87;;;1.10;;
8885;SDS011;4479;51.162;13.906;2022-07-12T20:23:59;0.80;;;0.77;;
8885;SDS011;4479;51.162;13.906;2022-07-12T20:34:04;0.70;;;0.70;;
8885;SDS011;4479;51.162;13.906;2022-07-12T20:44:24;2.00;;;0.80;;
8885;SDS011;4479;51.162;13.906;2022-07-12T20:54:30;0.70;;;0.70;;
8885;SDS011;4479;51.162;13.906;2022-07-12T21:04:34;1.73;;;0.77;;
8885;SDS011;4479;51.162;13.906;2022-07-12T21:14:39;0.97;;;0.87;;
8885;SDS011;4479;51.162;13.906;2022-07-12T21:24:44;0.80;;;0.80;;
8885;SDS011;4479;51.162;13.906;2022-07-12T21:34:49;2.10;;;0.80;;
8885;SDS011;4479;51.162;13.906;2022-07-12T21:44:53;1.23;;;0.83;;
8885;SDS011;4479;51.162;13.906;2022-07-12T21:54:58;0.80;;;0.77;;
8885;SDS011;4479;51.162;13.906;2022-07-12T22:05:04;1.20;;;0.80;;
8885;SDS011;4479;51.162;13.906;2022-07-12T22:15:09;1.30;;;0.80;;
8885;SDS011;4479;51.162;13.906;2022-07-12T22:25:13;1.07;;;0.93;;
8885;SDS011;4479;51.162;13.906;2022-07-12T22:35:19;0.90;;;0.80;;
8885;SDS011;4479;51.162;13.906;2022-07-12T22:45:22;2.13;;;0.77;;
8885;SDS011;4479;51.162;13.906;2022-07-12T22:55:27;0.93;;;0.80;;
8885;SDS011;4479;51.162;13.906;2022-07-12T23:05:31;1.30;;;0.90;;
8885;SDS011;4479;51.162;13.906;2022-07-12T23:15:36;1.87;;;0.87;;
8885;SDS011;4479;51.162;13.906;2022-07-12T23:25:40;1.90;;;0.73;;
8885;SDS011;4479;51.162;13.906;2022-07-12T23:35:45;1.17;;;0.70;;
8885;SDS011;4479;51.162;13.906;2022-07-12T23:45:48;0.73;;;0.73;;
8885;SDS011;4479;51.162;13.906;2022-07-12T23:55:54;3.90;;;0.90;;
